sensor_id;sensor_type;location;lat;lon;timestamp;P1;durP1;ratioP1;P2;durP2;ratioP2
13455;SDS011;6800;50.940;6.940;2023-10-09T00:03:27;22.00;;;15.93;;
13455;SDS011;6800;50.940;6.940;2023-10-09T00:07:29;19.80;;;16.20;;
13455;SDS011;6800;50.940;6.940;2023-10-09T00:11:31;21.40;;;15.30;;
13455;SDS011;6800;50.940;6.940;2023-10-09T00:15:39;22.27;;;15.60;;
13455;SDS011;6800;50.940;6.940;2023-10-09T00:19:42;19.87;;;15.10;;
13455;SDS011;6800;50.940;6.940;2023-10-09T00:23:49;19.13;;;15.23;;
13455;SDS011;6800;50.940;6.940;2023-10-09T00:27:55;18.00;;;13.43;;
13455;SDS011;6800;50.940;6.940;2023-10-09T00:32:00;17.93;;;14.50;;
13455;SDS011;6800;50.940;6.940;2023-10-09T00:36:09;20.00;;;14.82;;
13455;SDS011;6800;50.940;6.940;2023-10-09T00:40:10;17.10;;;14.37;;
13455;SDS011;6800;50.940;6.940;2023-10-09T00:44:23;17.17;;;13.83;;
13455;SDS011;6800;50.940;6.940;2023-10-09T00:48:25;18.70;;;14.60;;
13455;SDS011;6800;50.940;6.940;2023-10-09T00:52:32;20.63;;;14.40;;
13455;SDS011;6800;50.940;6.940;2023-10-09T00:56:44;18.53;;;13.77;;
13455;SDS011;6800;50.940;6.940;2023-10-09T01:00:52;18.73;;;16.83;;
13455;SDS011;6800;50.940;6.940;2023-10-09T01:04:54;17.40;;;14.00;;
13455;SDS011;6800;50.940;6.940;2023-10-09T01:08:56;21.83;;;14.32;;
13455;SDS011;6800;50.940;6.940;2023-10-09T01:13:10;18.53;;;14.03;;
13455;SDS011;6800;50.940;6.940;2023-10-09T01:17:12;18.50;;;14.13;;
13455;SDS011;6800;50.940;6.940;2023-10-09T01:21:24;15.67;;;12.13;;
13455;SDS011;6800;50.940;6.940;2023-10-09T01:25:27;16.47;;;11.93;;
13455;SDS011;6800;50.940;6.940;2023-10-09T01:29:43;15.47;;;12.13;;
13455;SDS011;6800;50.940;6.940;2023-10-09T01:33:47;14.27;;;11.50;;
13455;SDS011;6800;50.940;6.940;2023-10-09T01:37:48;15.53;;;11.53;;
13455;SDS011;6800;50.940;6.940;2023-10-09T01:41:53;15.33;;;11.40;;
13455;SDS011;6800;50.940;6.940;2023-10-09T01:46:01;17.77;;;12.03;;
13455;SDS011;6800;50.940;6.940;2023-10-09T01:50:05;13.63;;;10.50;;
13455;SDS011;6800;50.940;6.940;2023-10-09T01:54:12;14.50;;;10.43;;
13455;SDS011;6800;50.940;6.940;2023-10-09T01:58:28;19.80;;;11.57;;
13455;SDS011;6800;50.940;6.940;2023-10-09T02:02:33;12.57;;;11.00;;
13455;SDS011;6800;50.940;6.940;2023-10-09T02:06:35;15.00;;;10.70;;
13455;SDS011;6800;50.940;6.940;2023-10-09T02:10:39;13.97;;;11.43;;
13455;SDS011;6800;50.940;6.940;2023-10-09T02:14:40;15.03;;;9.90;;
13455;SDS011;6800;50.940;6.940;2023-10-09T02:18:43;11.77;;;10.00;;
13455;SDS011;6800;50.940;6.940;2023-10-09T02:22:54;14.97;;;10.53;;
13455;SDS011;6800;50.940;6.940;2023-10-09T02:26:56;14.03;;;9.27;;
13455;SDS011;6800;50.940;6.940;2023-10-09T02:30:57;15.05;;;9.43;;
13455;SDS011;6800;50.940;6.940;2023-10-09T02:35:01;11.32;;;8.65;;
13455;SDS011;6800;50.940;6.940;2023-10-09T02:39:12;12.10;;;8.43;;
13455;SDS011;6800;50.940;6.940;2023-10-09T02:43:27;12.23;;;8.77;;
13455;SDS011;6800;50.940;6.940;2023-10-09T02:47:29;13.20;;;9.00;;
13455;SDS011;6800;50.940;6.940;2023-10-09T02:51:32;13.80;;;7.95;;
13455;SDS011;6800;50.940;6.940;2023-10-09T02:55:34;12.95;;;8.60;;
13455;SDS011;6800;50.940;6.940;2023-10-09T02:59:39;11.37;;;8.57;;
13455;SDS011;6800;50.940;6.940;2023-10-09T03:03:46;12.23;;;8.45;;
13455;SDS011;6800;50.940;6.940;2023-10-09T03:07:48;13.80;;;9.23;;
13455;SDS011;6800;50.940;6.940;2023-10-09T03:11:51;11.90;;;8.90;;
13455;SDS011;6800;50.940;6.940;2023-10-09T03:15:56;12.32;;;8.93;;
13455;SDS011;6800;50.940;6.940;2023-10-09T03:19:58;12.63;;;8.70;;
13455;SDS011;6800;50.940;6.940;2023-10-09T03:24:00;11.55;;;9.00;;
13455;SDS011;6800;50.940;6.940;2023-10-09T03:28:06;11.77;;;8.77;;
13455;SDS011;6800;50.940;6.940;2023-10-09T03:32:08;9.65;;;7.45;;
13455;SDS011;6800;50.940;6.940;2023-10-09T03:36:10;13.45;;;8.77;;
13455;SDS011;6800;50.940;6.940;2023-10-09T03:40:11;11.43;;;8.75;;
13455;SDS011;6800;50.940;6.940;2023-10-09T03:44:18;10.50;;;8.40;;
13455;SDS011;6800;50.940;6.940;2023-10-09T03:48:20;12.87;;;9.00;;
13455;SDS011;6800;50.940;6.940;2023-10-09T03:52:28;12.53;;;9.00;;
13455;SDS011;6800;50.940;6.940;2023-10-09T03:56:32;12.20;;;8.55;;
13455;SDS011;6800;50.940;6.940;2023-10-09T04:00:33;13.53;;;9.17;;
13455;SDS011;6800;50.940;6.940;2023-10-09T04:04:46;11.50;;;8.65;;
13455;SDS011;6800;50.940;6.940;2023-10-09T04:08:49;11.90;;;9.03;;
13455;SDS011;6800;50.940;6.940;2023-10-09T04:12:52;12.30;;;9.10;;
13455;SDS011;6800;50.940;6.940;2023-10-09T04:16:54;14.47;;;9.33;;
13455;SDS011;6800;50.940;6.940;2023-10-09T04:21:06;10.85;;;8.45;;
13455;SDS011;6800;50.940;6.940;2023-10-09T04:25:21;12.47;;;8.90;;
13455;SDS011;6800;50.940;6.940;2023-10-09T04:29:31;13.47;;;8.90;;
13455;SDS011;6800;50.940;6.940;2023-10-09T04:33:45;10.23;;;7.78;;
13455;SDS011;6800;50.940;6.940;2023-10-09T04:38:08;13.57;;;8.38;;
13455;SDS011;6800;50.940;6.940;2023-10-09T04:42:09;11.15;;;7.88;;
13455;SDS011;6800;50.940;6.940;2023-10-09T04:46:20;10.05;;;7.43;;
13455;SDS011;6800;50.940;6.940;2023-10-09T04:50:24;11.57;;;7.47;;
13455;SDS011;6800;50.940;6.940;2023-10-09T04:54:37;15.80;;;7.28;;
13455;SDS011;6800;50.940;6.940;2023-10-09T04:59:01;12.45;;;7.90;;
13455;SDS011;6800;50.940;6.940;2023-10-09T05:03:09;10.95;;;7.03;;
13455;SDS011;6800;50.940;6.940;2023-10-09T05:07:14;11.85;;;7.43;;
13455;SDS011;6800;50.940;6.940;2023-10-09T05:11:25;11.85;;;7.28;;
13455;SDS011;6800;50.940;6.940;2023-10-09T05:15:54;13.20;;;7.60;;
13455;SDS011;6800;50.940;6.940;2023-10-09T05:19:58;10.93;;;7.32;;
13455;SDS011;6800;50.940;6.940;2023-10-09T05:24:20;8.20;;;6.35;;
13455;SDS011;6800;50.940;6.940;2023-10-09T05:28:24;9.45;;;6.43;;
13455;SDS011;6800;50.940;6.940;2023-10-09T05:32:26;11.43;;;7.07;;
13455;SDS011;6800;50.940;6.940;2023-10-09T05:36:36;11.38;;;6.45;;
13455;SDS011;6800;50.940;6.940;2023-10-09T05:40:37;11.48;;;6.50;;
13455;SDS011;6800;50.940;6.940;2023-10-09T05:44:39;12.63;;;6.53;;
13455;SDS011;6800;50.940;6.940;2023-10-09T05:48:59;10.02;;;6.40;;
13455;SDS011;6800;50.940;6.940;2023-10-09T05:53:10;10.38;;;6.50;;
13455;SDS011;6800;50.940;6.940;2023-10-09T05:57:31;8.82;;;5.68;;
13455;SDS011;6800;50.940;6.940;2023-10-09T06:01:52;9.15;;;6.32;;
13455;SDS011;6800;50.940;6.940;2023-10-09T06:06:08;10.90;;;6.47;;
13455;SDS011;6800;50.940;6.940;2023-10-09T06:10:09;9.15;;;6.35;;
13455;SDS011;6800;50.940;6.940;2023-10-09T06:14:19;9.45;;;6.05;;
13455;SDS011;6800;50.940;6.940;2023-10-09T06:18:31;11.93;;;5.90;;
13455;SDS011;6800;50.940;6.940;2023-10-09T06:22:36;8.43;;;6.10;;
13455;SDS011;6800;50.940;6.940;2023-10-09T06:26:37;13.50;;;7.15;;
13455;SDS011;6800;50.940;6.940;2023-10-09T06:30:38;12.38;;;6.43;;
13455;SDS011;6800;50.940;6.940;2023-10-09T06:34:52;9.80;;;6.25;;
13455;SDS011;6800;50.940;6.940;2023-10-09T06:38:58;11.23;;;6.40;;
13455;SDS011;6800;50.940;6.940;2023-10-09T06:43:18;8.13;;;6.20;;
13455;SDS011;6800;50.940;6.940;2023-10-09T06:47:23;9.07;;;6.40;;
13455;SDS011;6800;50.940;6.940;2023-10-09T06:51:25;8.60;;;5.97;;
13455;SDS011;6800;50.940;6.940;2023-10-09T06:55:27;10.57;;;6.30;;
13455;SDS011;6800;50.940;6.940;2023-10-09T06:59:49;8.10;;;6.40;;
13455;SDS011;6800;50.940;6.940;2023-10-09T07:04:09;10.73;;;6.43;;
13455;SDS011;6800;50.940;6.940;2023-10-09T07:08:20;10.77;;;6.20;;
13455;SDS011;6800;50.940;6.940;2023-10-09T07:12:33;14.30;;;6.70;;
13455;SDS011;6800;50.940;6.940;2023-10-09T07:16:35;10.30;;;6.75;;
13455;SDS011;6800;50.940;6.940;2023-10-09T07:20:39;13.93;;;6.60;;
13455;SDS011;6800;50.940;6.940;2023-10-09T07:28:51;11.63;;;7.10;;
13455;SDS011;6800;50.940;6.940;2023-10-09T07:33:02;11.07;;;6.97;;
13455;SDS011;6800;50.940;6.940;2023-10-09T07:37:26;8.48;;;6.60;;
13455;SDS011;6800;50.940;6.940;2023-10-09T07:41:36;9.20;;;6.63;;
13455;SDS011;6800;50.940;6.940;2023-10-09T07:45:40;10.93;;;6.90;;
13455;SDS011;6800;50.940;6.940;2023-10-09T07:50:00;9.43;;;7.00;;
13455;SDS011;6800;50.940;6.940;2023-10-09T07:54:02;11.27;;;7.00;;
13455;SDS011;6800;50.940;6.940;2023-10-09T07:58:10;14.63;;;7.88;;
13455;SDS011;6800;50.940;6.940;2023-10-09T08:02:12;12.02;;;7.78;;
13455;SDS011;6800;50.940;6.940;2023-10-09T08:06:18;12.05;;;7.80;;
13455;SDS011;6800;50.940;6.940;2023-10-09T08:10:38;12.65;;;7.75;;
13455;SDS011;6800;50.940;6.940;2023-10-09T08:15:03;11.43;;;7.50;;
13455;SDS011;6800;50.940;6.940;2023-10-09T08:19:19;10.60;;;7.22;;
13455;SDS011;6800;50.940;6.940;2023-10-09T08:23:52;13.77;;;6.85;;
13455;SDS011;6800;50.940;6.940;2023-10-09T08:27:54;9.88;;;6.45;;
13455;SDS011;6800;50.940;6.940;2023-10-09T08:31:58;11.52;;;6.50;;
13455;SDS011;6800;50.940;6.940;2023-10-09T08:36:39;7.38;;;6.32;;
13455;SDS011;6800;50.940;6.940;2023-10-09T08:40:44;7.88;;;6.93;;
13455;SDS011;6800;50.940;6.940;2023-10-09T08:44:47;13.88;;;6.93;;
13455;SDS011;6800;50.940;6.940;2023-10-09T08:48:50;13.00;;;6.80;;
13455;SDS011;6800;50.940;6.940;2023-10-09T08:52:51;13.13;;;6.68;;
13455;SDS011;6800;50.940;6.940;2023-10-09T08:56:53;9.15;;;6.00;;
13455;SDS011;6800;50.940;6.940;2023-10-09T09:00:57;10.43;;;7.00;;
13455;SDS011;6800;50.940;6.940;2023-10-09T09:05:00;10.50;;;6.20;;
13455;SDS011;6800;50.940;6.940;2023-10-09T09:09:17;8.02;;;6.30;;
13455;SDS011;6800;50.940;6.940;2023-10-09T09:13:20;7.93;;;5.95;;
13455;SDS011;6800;50.940;6.940;2023-10-09T09:17:29;8.82;;;6.32;;
13455;SDS011;6800;50.940;6.940;2023-10-09T09:21:38;10.00;;;6.00;;
13455;SDS011;6800;50.940;6.940;2023-10-09T09:25:44;9.25;;;6.15;;
13455;SDS011;6800;50.940;6.940;2023-10-09T09:29:48;10.55;;;6.68;;
13455;SDS011;6800;50.940;6.940;2023-10-09T09:33:56;10.30;;;6.57;;
13455;SDS011;6800;50.940;6.940;2023-10-09T09:38:04;9.20;;;6.50;;
13455;SDS011;6800;50.940;6.940;2023-10-09T09:42:07;12.27;;;6.20;;
13455;SDS011;6800;50.940;6.940;2023-10-09T09:46:14;10.93;;;6.10;;
13455;SDS011;6800;50.940;6.940;2023-10-09T09:50:17;7.90;;;6.07;;
13455;SDS011;6800;50.940;6.940;2023-10-09T09:54:26;10.48;;;6.60;;
13455;SDS011;6800;50.940;6.940;2023-10-09T09:58:29;10.07;;;6.00;;
13455;SDS011;6800;50.940;6.940;2023-10-09T10:02:44;10.18;;;7.28;;
13455;SDS011;6800;50.940;6.940;2023-10-09T10:06:46;6.72;;;5.32;;
13455;SDS011;6800;50.940;6.940;2023-10-09T10:10:50;21.17;;;6.93;;
13455;SDS011;6800;50.940;6.940;2023-10-09T10:14:55;8.95;;;6.90;;
13455;SDS011;6800;50.940;6.940;2023-10-09T10:19:07;16.58;;;6.95;;
13455;SDS011;6800;50.940;6.940;2023-10-09T10:23:18;8.77;;;7.82;;
13455;SDS011;6800;50.940;6.940;2023-10-09T10:27:27;8.80;;;6.82;;
13455;SDS011;6800;50.940;6.940;2023-10-09T10:35:55;8.15;;;6.85;;
13455;SDS011;6800;50.940;6.940;2023-10-09T10:39:57;6.90;;;6.22;;
13455;SDS011;6800;50.940;6.940;2023-10-09T10:44:00;10.93;;;6.90;;
13455;SDS011;6800;50.940;6.940;2023-10-09T10:48:22;7.53;;;6.53;;
13455;SDS011;6800;50.940;6.940;2023-10-09T10:52:38;7.65;;;6.32;;
13455;SDS011;6800;50.940;6.940;2023-10-09T10:56:44;7.32;;;5.63;;
13455;SDS011;6800;50.940;6.940;2023-10-09T11:00:51;8.20;;;6.10;;
13455;SDS011;6800;50.940;6.940;2023-10-09T11:04:59;8.00;;;6.35;;
13455;SDS011;6800;50.940;6.940;2023-10-09T11:09:24;9.05;;;6.20;;
13455;SDS011;6800;50.940;6.940;2023-10-09T11:13:52;8.30;;;6.53;;
13455;SDS011;6800;50.940;6.940;2023-10-09T11:18:02;10.45;;;5.85;;
13455;SDS011;6800;50.940;6.940;2023-10-09T11:22:09;9.02;;;5.13;;
13455;SDS011;6800;50.940;6.940;2023-10-09T11:26:10;6.65;;;5.40;;
13455;SDS011;6800;50.940;6.940;2023-10-09T11:30:32;8.57;;;5.40;;
13455;SDS011;6800;50.940;6.940;2023-10-09T11:34:34;8.60;;;5.68;;
13455;SDS011;6800;50.940;6.940;2023-10-09T11:38:37;8.52;;;4.57;;
13455;SDS011;6800;50.940;6.940;2023-10-09T11:42:39;7.47;;;5.90;;
13455;SDS011;6800;50.940;6.940;2023-10-09T11:46:58;7.78;;;5.35;;
13455;SDS011;6800;50.940;6.940;2023-10-09T11:51:21;8.48;;;6.65;;
13455;SDS011;6800;50.940;6.940;2023-10-09T11:55:23;8.05;;;5.07;;
13455;SDS011;6800;50.940;6.940;2023-10-09T11:59:26;8.93;;;5.07;;
13455;SDS011;6800;50.940;6.940;2023-10-09T12:03:29;4.57;;;4.00;;
13455;SDS011;6800;50.940;6.940;2023-10-09T12:07:31;9.30;;;4.70;;
13455;SDS011;6800;50.940;6.940;2023-10-09T12:11:33;7.07;;;5.07;;
13455;SDS011;6800;50.940;6.940;2023-10-09T12:15:34;9.02;;;5.60;;
13455;SDS011;6800;50.940;6.940;2023-10-09T12:19:39;12.13;;;5.85;;
13455;SDS011;6800;50.940;6.940;2023-10-09T12:23:41;6.72;;;5.25;;
13455;SDS011;6800;50.940;6.940;2023-10-09T12:27:45;8.68;;;5.78;;
13455;SDS011;6800;50.940;6.940;2023-10-09T12:31:46;11.18;;;5.03;;
13455;SDS011;6800;50.940;6.940;2023-10-09T12:35:47;9.70;;;6.30;;
13455;SDS011;6800;50.940;6.940;2023-10-09T12:39:49;10.30;;;6.13;;
13455;SDS011;6800;50.940;6.940;2023-10-09T12:43:51;10.30;;;6.32;;
13455;SDS011;6800;50.940;6.940;2023-10-09T12:47:53;12.13;;;6.10;;
13455;SDS011;6800;50.940;6.940;2023-10-09T12:52:00;9.10;;;6.10;;
13455;SDS011;6800;50.940;6.940;2023-10-09T12:56:01;8.48;;;5.90;;
13455;SDS011;6800;50.940;6.940;2023-10-09T13:00:03;8.85;;;5.88;;
13455;SDS011;6800;50.940;6.940;2023-10-09T13:04:12;9.25;;;5.85;;
13455;SDS011;6800;50.940;6.940;2023-10-09T13:08:20;12.40;;;7.30;;
13455;SDS011;6800;50.940;6.940;2023-10-09T13:12:23;9.70;;;6.78;;
13455;SDS011;6800;50.940;6.940;2023-10-09T13:16:24;13.82;;;7.00;;
13455;SDS011;6800;50.940;6.940;2023-10-09T13:20:26;10.52;;;6.40;;
13455;SDS011;6800;50.940;6.940;2023-10-09T13:24:29;11.15;;;5.75;;
13455;SDS011;6800;50.940;6.940;2023-10-09T13:28:32;12.32;;;6.10;;
13455;SDS011;6800;50.940;6.940;2023-10-09T13:32:33;9.20;;;6.20;;
13455;SDS011;6800;50.940;6.940;2023-10-09T13:36:36;8.93;;;5.55;;
13455;SDS011;6800;50.940;6.940;2023-10-09T13:40:38;8.23;;;5.70;;
13455;SDS011;6800;50.940;6.940;2023-10-09T13:44:39;10.50;;;6.00;;
13455;SDS011;6800;50.940;6.940;2023-10-09T13:48:43;7.45;;;5.93;;
13455;SDS011;6800;50.940;6.940;2023-10-09T13:52:46;11.45;;;6.55;;
13455;SDS011;6800;50.940;6.940;2023-10-09T13:56:50;10.20;;;5.70;;
13455;SDS011;6800;50.940;6.940;2023-10-09T14:00:55;8.95;;;6.40;;
13455;SDS011;6800;50.940;6.940;2023-10-09T14:04:58;11.30;;;6.95;;
13455;SDS011;6800;50.940;6.940;2023-10-09T14:09:02;9.95;;;6.05;;
13455;SDS011;6800;50.940;6.940;2023-10-09T14:13:10;7.72;;;6.57;;
13455;SDS011;6800;50.940;6.940;2023-10-09T14:17:17;9.05;;;6.07;;
13455;SDS011;6800;50.940;6.940;2023-10-09T14:21:27;10.00;;;6.68;;
13455;SDS011;6800;50.940;6.940;2023-10-09T14:25:31;10.70;;;6.65;;
13455;SDS011;6800;50.940;6.940;2023-10-09T14:29:33;7.53;;;5.88;;
13455;SDS011;6800;50.940;6.940;2023-10-09T14:33:38;7.60;;;5.90;;
13455;SDS011;6800;50.940;6.940;2023-10-09T14:37:41;8.82;;;6.55;;
13455;SDS011;6800;50.940;6.940;2023-10-09T14:41:43;9.18;;;6.70;;
13455;SDS011;6800;50.940;6.940;2023-10-09T14:45:45;10.25;;;6.72;;
13455;SDS011;6800;50.940;6.940;2023-10-09T14:49:49;9.18;;;7.18;;
13455;SDS011;6800;50.940;6.940;2023-10-09T14:53:54;11.05;;;6.70;;
13455;SDS011;6800;50.940;6.940;2023-10-09T14:57:59;10.70;;;7.05;;
13455;SDS011;6800;50.940;6.940;2023-10-09T15:02:00;8.73;;;6.80;;
13455;SDS011;6800;50.940;6.940;2023-10-09T15:06:02;7.80;;;6.28;;
13455;SDS011;6800;50.940;6.940;2023-10-09T15:10:04;8.32;;;6.38;;
13455;SDS011;6800;50.940;6.940;2023-10-09T15:14:06;13.65;;;6.78;;
13455;SDS011;6800;50.940;6.940;2023-10-09T15:18:08;10.20;;;6.43;;
13455;SDS011;6800;50.940;6.940;2023-10-09T15:22:09;11.27;;;6.65;;
13455;SDS011;6800;50.940;6.940;2023-10-09T15:26:11;11.77;;;7.10;;
13455;SDS011;6800;50.940;6.940;2023-10-09T15:30:17;10.13;;;6.78;;
13455;SDS011;6800;50.940;6.940;2023-10-09T15:34:18;8.90;;;7.05;;
13455;SDS011;6800;50.940;6.940;2023-10-09T15:38:21;9.75;;;6.88;;
13455;SDS011;6800;50.940;6.940;2023-10-09T15:42:23;9.07;;;7.00;;
13455;SDS011;6800;50.940;6.940;2023-10-09T15:46:24;9.68;;;6.55;;
13455;SDS011;6800;50.940;6.940;2023-10-09T15:50:27;9.30;;;7.05;;
13455;SDS011;6800;50.940;6.940;2023-10-09T15:54:28;11.38;;;7.05;;
13455;SDS011;6800;50.940;6.940;2023-10-09T15:58:29;8.63;;;7.00;;
13455;SDS011;6800;50.940;6.940;2023-10-09T16:02:31;11.07;;;6.88;;
13455;SDS011;6800;50.940;6.940;2023-10-09T16:06:32;12.73;;;9.30;;
13455;SDS011;6800;50.940;6.940;2023-10-09T16:10:35;9.48;;;6.85;;
13455;SDS011;6800;50.940;6.940;2023-10-09T16:14:37;10.13;;;6.88;;
13455;SDS011;6800;50.940;6.940;2023-10-09T16:18:38;9.43;;;6.75;;
13455;SDS011;6800;50.940;6.940;2023-10-09T16:22:40;8.27;;;6.82;;
13455;SDS011;6800;50.940;6.940;2023-10-09T16:26:42;8.90;;;7.10;;
13455;SDS011;6800;50.940;6.940;2023-10-09T16:30:46;12.38;;;6.75;;
13455;SDS011;6800;50.940;6.940;2023-10-09T16:34:49;9.77;;;6.15;;
13455;SDS011;6800;50.940;6.940;2023-10-09T16:38:54;11.57;;;7.22;;
13455;SDS011;6800;50.940;6.940;2023-10-09T16:42:56;11.52;;;7.25;;
13455;SDS011;6800;50.940;6.940;2023-10-09T16:46:58;10.52;;;6.50;;
13455;SDS011;6800;50.940;6.940;2023-10-09T16:50:59;9.75;;;6.65;;
13455;SDS011;6800;50.940;6.940;2023-10-09T16:55:09;7.57;;;6.30;;
13455;SDS011;6800;50.940;6.940;2023-10-09T16:59:12;10.15;;;6.65;;
13455;SDS011;6800;50.940;6.940;2023-10-09T17:03:16;10.80;;;7.57;;
13455;SDS011;6800;50.940;6.940;2023-10-09T17:07:19;11.02;;;7.07;;
13455;SDS011;6800;50.940;6.940;2023-10-09T17:11:24;11.05;;;7.00;;
13455;SDS011;6800;50.940;6.940;2023-10-09T17:15:26;10.57;;;7.60;;
13455;SDS011;6800;50.940;6.940;2023-10-09T17:19:34;11.07;;;7.72;;
13455;SDS011;6800;50.940;6.940;2023-10-09T17:23:40;12.02;;;8.45;;
13455;SDS011;6800;50.940;6.940;2023-10-09T17:27:43;12.00;;;9.45;;
13455;SDS011;6800;50.940;6.940;2023-10-09T17:31:45;11.27;;;7.68;;
13455;SDS011;6800;50.940;6.940;2023-10-09T17:35:46;10.35;;;7.88;;
13455;SDS011;6800;50.940;6.940;2023-10-09T17:39:48;12.48;;;7.93;;
13455;SDS011;6800;50.940;6.940;2023-10-09T17:43:49;12.63;;;8.50;;
13455;SDS011;6800;50.940;6.940;2023-10-09T17:47:52;12.65;;;8.60;;
13455;SDS011;6800;50.940;6.940;2023-10-09T17:51:56;13.05;;;8.73;;
13455;SDS011;6800;50.940;6.940;2023-10-09T17:56:01;11.70;;;7.53;;
13455;SDS011;6800;50.940;6.940;2023-10-09T18:00:02;13.02;;;7.93;;
13455;SDS011;6800;50.940;6.940;2023-10-09T18:04:05;12.75;;;8.10;;
13455;SDS011;6800;50.940;6.940;2023-10-09T18:08:06;13.02;;;8.05;;
13455;SDS011;6800;50.940;6.940;2023-10-09T18:12:08;9.88;;;7.38;;
13455;SDS011;6800;50.940;6.940;2023-10-09T18:16:11;10.23;;;7.95;;
13455;SDS011;6800;50.940;6.940;2023-10-09T18:20:13;11.15;;;8.15;;
13455;SDS011;6800;50.940;6.940;2023-10-09T18:24:15;9.90;;;8.38;;
13455;SDS011;6800;50.940;6.940;2023-10-09T18:28:17;16.15;;;10.18;;
13455;SDS011;6800;50.940;6.940;2023-10-09T18:32:18;19.92;;;15.15;;
13455;SDS011;6800;50.940;6.940;2023-10-09T18:36:24;14.15;;;8.98;;
13455;SDS011;6800;50.940;6.940;2023-10-09T18:40:29;11.18;;;7.88;;
13455;SDS011;6800;50.940;6.940;2023-10-09T18:44:36;12.38;;;8.75;;
13455;SDS011;6800;50.940;6.940;2023-10-09T18:48:39;13.23;;;8.10;;
13455;SDS011;6800;50.940;6.940;2023-10-09T18:52:41;13.15;;;9.20;;
13455;SDS011;6800;50.940;6.940;2023-10-09T18:56:43;12.25;;;9.27;;
13455;SDS011;6800;50.940;6.940;2023-10-09T19:00:45;12.02;;;10.23;;
13455;SDS011;6800;50.940;6.940;2023-10-09T19:04:52;12.32;;;9.05;;
13455;SDS011;6800;50.940;6.940;2023-10-09T19:08:54;12.52;;;9.50;;
13455;SDS011;6800;50.940;6.940;2023-10-09T19:12:56;12.27;;;9.10;;
13455;SDS011;6800;50.940;6.940;2023-10-09T19:16:58;9.85;;;8.18;;
13455;SDS011;6800;50.940;6.940;2023-10-09T19:21:05;11.50;;;9.00;;
13455;SDS011;6800;50.940;6.940;2023-10-09T19:25:10;14.40;;;9.32;;
13455;SDS011;6800;50.940;6.940;2023-10-09T19:29:27;13.55;;;10.05;;
13455;SDS011;6800;50.940;6.940;2023-10-09T19:33:29;15.13;;;9.18;;
13455;SDS011;6800;50.940;6.940;2023-10-09T19:37:30;13.57;;;10.77;;
13455;SDS011;6800;50.940;6.940;2023-10-09T19:41:32;11.20;;;9.00;;
13455;SDS011;6800;50.940;6.940;2023-10-09T19:45:36;11.23;;;8.52;;
13455;SDS011;6800;50.940;6.940;2023-10-09T19:49:38;12.77;;;10.82;;
13455;SDS011;6800;50.940;6.940;2023-10-09T19:53:41;11.73;;;8.30;;
13455;SDS011;6800;50.940;6.940;2023-10-09T19:57:42;10.10;;;9.07;;
13455;SDS011;6800;50.940;6.940;2023-10-09T20:01:44;13.05;;;9.48;;
13455;SDS011;6800;50.940;6.940;2023-10-09T20:05:49;12.13;;;9.00;;
13455;SDS011;6800;50.940;6.940;2023-10-09T20:09:51;11.80;;;8.70;;
13455;SDS011;6800;50.940;6.940;2023-10-09T20:13:53;11.52;;;9.05;;
13455;SDS011;6800;50.940;6.940;2023-10-09T20:17:54;15.70;;;10.70;;
13455;SDS011;6800;50.940;6.940;2023-10-09T20:21:56;14.07;;;9.93;;
13455;SDS011;6800;50.940;6.940;2023-10-09T20:25:58;14.93;;;10.57;;
13455;SDS011;6800;50.940;6.940;2023-10-09T20:30:12;13.93;;;10.55;;
13455;SDS011;6800;50.940;6.940;2023-10-09T20:34:14;15.57;;;11.30;;
13455;SDS011;6800;50.940;6.940;2023-10-09T20:38:15;17.13;;;12.18;;
13455;SDS011;6800;50.940;6.940;2023-10-09T20:42:17;20.13;;;11.27;;
13455;SDS011;6800;50.940;6.940;2023-10-09T20:46:19;15.45;;;11.18;;
13455;SDS011;6800;50.940;6.940;2023-10-09T20:50:21;14.45;;;10.55;;
13455;SDS011;6800;50.940;6.940;2023-10-09T20:54:24;12.65;;;10.75;;
13455;SDS011;6800;50.940;6.940;2023-10-09T20:58:26;13.02;;;11.43;;
13455;SDS011;6800;50.940;6.940;2023-10-09T21:02:27;16.73;;;11.93;;
13455;SDS011;6800;50.940;6.940;2023-10-09T21:06:29;15.82;;;12.38;;
13455;SDS011;6800;50.940;6.940;2023-10-09T21:10:30;15.85;;;11.15;;
13455;SDS011;6800;50.940;6.940;2023-10-09T21:14:34;13.80;;;11.80;;
13455;SDS011;6800;50.940;6.940;2023-10-09T21:18:35;18.17;;;13.30;;
13455;SDS011;6800;50.940;6.940;2023-10-09T21:22:37;16.98;;;13.55;;
13455;SDS011;6800;50.940;6.940;2023-10-09T21:26:39;21.63;;;14.30;;
13455;SDS011;6800;50.940;6.940;2023-10-09T21:30:40;18.80;;;13.85;;
13455;SDS011;6800;50.940;6.940;2023-10-09T21:34:41;21.20;;;13.85;;
13455;SDS011;6800;50.940;6.940;2023-10-09T21:38:43;20.00;;;15.38;;
13455;SDS011;6800;50.940;6.940;2023-10-09T21:42:44;16.42;;;13.60;;
13455;SDS011;6800;50.940;6.940;2023-10-09T21:46:46;18.50;;;13.35;;
13455;SDS011;6800;50.940;6.940;2023-10-09T21:50:47;17.13;;;13.07;;
13455;SDS011;6800;50.940;6.940;2023-10-09T21:54:48;18.67;;;15.20;;
13455;SDS011;6800;50.940;6.940;2023-10-09T21:58:50;17.92;;;14.02;;
13455;SDS011;6800;50.940;6.940;2023-10-09T22:02:52;16.92;;;12.45;;
13455;SDS011;6800;50.940;6.940;2023-10-09T22:06:54;16.38;;;13.90;;
13455;SDS011;6800;50.940;6.940;2023-10-09T22:10:55;18.92;;;13.15;;
13455;SDS011;6800;50.940;6.940;2023-10-09T22:14:58;15.63;;;12.93;;
13455;SDS011;6800;50.940;6.940;2023-10-09T22:19:02;16.02;;;11.85;;
13455;SDS011;6800;50.940;6.940;2023-10-09T22:23:15;14.43;;;12.00;;
13455;SDS011;6800;50.940;6.940;2023-10-09T22:27:20;13.30;;;11.35;;
13455;SDS011;6800;50.940;6.940;2023-10-09T22:31:27;15.43;;;12.82;;
13455;SDS011;6800;50.940;6.940;2023-10-09T22:35:33;15.88;;;12.32;;
13455;SDS011;6800;50.940;6.940;2023-10-09T22:39:36;16.42;;;12.30;;
13455;SDS011;6800;50.940;6.940;2023-10-09T22:43:42;13.77;;;11.52;;
13455;SDS011;6800;50.940;6.940;2023-10-09T22:47:47;17.30;;;12.27;;
13455;SDS011;6800;50.940;6.940;2023-10-09T22:51:52;17.48;;;11.82;;
13455;SDS011;6800;50.940;6.940;2023-10-09T22:55:55;14.93;;;11.05;;
13455;SDS011;6800;50.940;6.940;2023-10-09T22:59:56;16.30;;;13.48;;
13455;SDS011;6800;50.940;6.940;2023-10-09T23:04:01;19.95;;;13.73;;
13455;SDS011;6800;50.940;6.940;2023-10-09T23:08:17;15.60;;;12.05;;
13455;SDS011;6800;50.940;6.940;2023-10-09T23:12:21;15.85;;;11.43;;
13455;SDS011;6800;50.940;6.940;2023-10-09T23:16:27;13.68;;;11.50;;
13455;SDS011;6800;50.940;6.940;2023-10-09T23:20:50;16.08;;;11.32;;
13455;SDS011;6800;50.940;6.940;2023-10-09T23:25:11;12.57;;;11.27;;
13455;SDS011;6800;50.940;6.940;2023-10-09T23:29:18;14.60;;;11.13;;
13455;SDS011;6800;50.940;6.940;2023-10-09T23:33:30;14.35;;;11.73;;
13455;SDS011;6800;50.940;6.940;2023-10-09T23:37:33;14.18;;;11.40;;
13455;SDS011;6800;50.940;6.940;2023-10-09T23:41:39;15.20;;;11.30;;
13455;SDS011;6800;50.940;6.940;2023-10-09T23:45:41;13.93;;;12.13;;
13455;SDS011;6800;50.940;6.940;2023-10-09T23:49:43;14.75;;;11.45;;
13455;SDS011;6800;50.940;6.940;2023-10-09T23:53:46;15.57;;;12.10;;
13455;SDS011;6800;50.940;6.940;2023-10-09T23:57:52;15.88;;;11.13;;
